sensor_id;sensor_type;location;lat;lon;timestamp;pressure;altitude;pressure_sealevel;temperature;humidity
11198;BME280;5655;48.744;9.162;2022-07-29T00:01:45;96547.47;;;21.58;100.00
11198;BME280;5655;48.744;9.162;2022-07-29T00:04:11;96544.22;;;21.63;100.00
11198;BME280;5655;48.744;9.162;2022-07-29T00:06:37;96546.09;;;21.66;100.00
11198;BME280;5655;48.744;9.162;2022-07-29T00:09:02;96535.09;;;21.69;100.00
11198;BME280;5655;48.744;9.162;2022-07-29T00:11:28;96529.09;;;21.74;100.00
11198;BME280;5655;48.744;9.162;2022-07-29T00:13:53;96529.69;;;21.82;100.00
11198;BME280;5655;48.744;9.162;2022-07-29T00:16:18;96509.22;;;21.90;100.00
11198;BME280;5655;48.744;9.162;2022-07-29T00:18:43;96511.53;;;21.63;100.00
11198;BME280;5655;48.744;9.162;2022-07-29T00:21:09;96528.13;;;21.68;100.00
11198;BME280;5655;48.744;9.162;2022-07-29T00:23:34;96524.91;;;21.57;100.00
11198;BME280;5655;48.744;9.162;2022-07-29T00:25:59;96541.34;;;21.54;100.00
11198;BME280;5655;48.744;9.162;2022-07-29T00:28:25;96542.22;;;21.51;100.00
11198;BME280;5655;48.744;9.162;2022-07-29T00:30:50;96543.75;;;21.52;100.00
11198;BME280;5655;48.744;9.162;2022-07-29T00:33:15;96541.56;;;21.47;100.00
11198;BME280;5655;48.744;9.162;2022-07-29T00:35:41;96542.78;;;21.30;100.00
11198;BME280;5655;48.744;9.162;2022-07-29T00:38:14;96557.78;;;21.50;100.00
11198;BME280;5655;48.744;9.162;2022-07-29T00:40:40;96537.59;;;21.64;100.00
11198;BME280;5655;48.744;9.162;2022-07-29T00:43:06;96528.19;;;21.52;100.00
11198;BME280;5655;48.744;9.162;2022-07-29T00:45:31;96529.63;;;21.57;100.00
11198;BME280;5655;48.744;9.162;2022-07-29T00:47:57;96531.69;;;21.37;100.00
11198;BME280;5655;48.744;9.162;2022-07-29T00:50:22;96537.19;;;21.49;100.00
11198;BME280;5655;48.744;9.162;2022-07-29T00:52:48;96539.47;;;21.22;100.00
11198;BME280;5655;48.744;9.162;2022-07-29T00:55:15;96539.13;;;21.20;100.00
11198;BME280;5655;48.744;9.162;2022-07-29T00:57:42;96547.72;;;21.18;100.00
11198;BME280;5655;48.744;9.162;2022-07-29T01:00:11;96529.41;;;21.35;100.00
11198;BME280;5655;48.744;9.162;2022-07-29T01:02:38;96519.66;;;21.21;100.00
11198;BME280;5655;48.744;9.162;2022-07-29T01:05:04;96502.38;;;21.57;100.00
11198;BME280;5655;48.744;9.162;2022-07-29T01:07:32;96488.19;;;21.62;100.00
11198;BME280;5655;48.744;9.162;2022-07-29T01:09:59;96487.94;;;21.44;100.00
11198;BME280;5655;48.744;9.162;2022-07-29T01:12:27;96467.66;;;21.45;100.00
11198;BME280;5655;48.744;9.162;2022-07-29T01:14:54;96462.72;;;21.56;100.00
11198;BME280;5655;48.744;9.162;2022-07-29T01:23:08;96471.38;;;21.38;100.00
11198;BME280;5655;48.744;9.162;2022-07-29T01:28:45;96454.97;;;21.25;100.00
11198;BME280;5655;48.744;9.162;2022-07-29T01:31:18;96449.53;;;21.25;100.00
11198;BME280;5655;48.744;9.162;2022-07-29T01:33:50;96453.66;;;21.17;100.00
11198;BME280;5655;48.744;9.162;2022-07-29T01:36:27;96448.50;;;21.36;100.00
11198;BME280;5655;48.744;9.162;2022-07-29T01:39:02;96441.16;;;21.33;100.00
11198;BME280;5655;48.744;9.162;2022-07-29T01:41:31;96439.63;;;21.32;100.00
11198;BME280;5655;48.744;9.162;2022-07-29T01:44:02;96428.56;;;21.39;100.00
11198;BME280;5655;48.744;9.162;2022-07-29T01:46:34;96418.41;;;21.26;100.00
11198;BME280;5655;48.744;9.162;2022-07-29T01:49:14;96440.44;;;21.16;100.00
11198;BME280;5655;48.744;9.162;2022-07-29T01:52:03;96440.06;;;21.30;100.00
11198;BME280;5655;48.744;9.162;2022-07-29T01:54:37;96439.84;;;21.08;100.00
11198;BME280;5655;48.744;9.162;2022-07-29T01:57:04;96441.25;;;21.00;100.00
11198;BME280;5655;48.744;9.162;2022-07-29T01:59:33;96431.69;;;21.08;100.00
11198;BME280;5655;48.744;9.162;2022-07-29T02:02:00;96427.13;;;21.05;100.00
11198;BME280;5655;48.744;9.162;2022-07-29T02:04:27;96445.75;;;20.91;100.00
11198;BME280;5655;48.744;9.162;2022-07-29T02:06:57;96451.88;;;20.95;100.00
11198;BME280;5655;48.744;9.162;2022-07-29T02:09:25;96444.31;;;20.86;100.00
11198;BME280;5655;48.744;9.162;2022-07-29T02:11:52;96440.31;;;20.91;100.00
11198;BME280;5655;48.744;9.162;2022-07-29T02:14:20;96426.97;;;20.96;100.00
11198;BME280;5655;48.744;9.162;2022-07-29T02:16:47;96423.31;;;20.87;100.00
11198;BME280;5655;48.744;9.162;2022-07-29T02:19:14;96412.81;;;21.01;100.00
11198;BME280;5655;48.744;9.162;2022-07-29T02:21:41;96410.69;;;20.93;100.00
11198;BME280;5655;48.744;9.162;2022-07-29T02:24:09;96412.53;;;20.83;100.00
11198;BME280;5655;48.744;9.162;2022-07-29T02:26:37;96411.09;;;20.78;100.00
11198;BME280;5655;48.744;9.162;2022-07-29T02:29:04;96416.97;;;20.61;100.00
11198;BME280;5655;48.744;9.162;2022-07-29T02:31:33;96414.75;;;20.72;100.00
11198;BME280;5655;48.744;9.162;2022-07-29T02:34:01;96399.44;;;20.78;100.00
11198;BME280;5655;48.744;9.162;2022-07-29T02:36:29;96382.19;;;20.97;100.00
11198;BME280;5655;48.744;9.162;2022-07-29T02:38:56;96382.34;;;20.77;100.00
11198;BME280;5655;48.744;9.162;2022-07-29T02:41:47;96390.97;;;20.89;100.00
11198;BME280;5655;48.744;9.162;2022-07-29T02:44:18;96371.00;;;20.95;100.00
11198;BME280;5655;48.744;9.162;2022-07-29T02:47:06;96378.75;;;20.97;100.00
11198;BME280;5655;48.744;9.162;2022-07-29T02:55:01;96375.94;;;20.84;100.00
11198;BME280;5655;48.744;9.162;2022-07-29T02:57:41;96378.34;;;20.82;100.00
11198;BME280;5655;48.744;9.162;2022-07-29T03:00:08;96372.75;;;20.73;100.00
11198;BME280;5655;48.744;9.162;2022-07-29T03:02:40;96374.03;;;20.68;100.00
11198;BME280;5655;48.744;9.162;2022-07-29T03:05:09;96375.66;;;20.66;100.00
11198;BME280;5655;48.744;9.162;2022-07-29T03:07:36;96368.69;;;20.65;100.00
11198;BME280;5655;48.744;9.162;2022-07-29T03:10:06;96350.84;;;20.64;100.00
11198;BME280;5655;48.744;9.162;2022-07-29T03:12:32;96371.06;;;20.63;100.00
11198;BME280;5655;48.744;9.162;2022-07-29T03:14:59;96360.00;;;20.70;100.00
11198;BME280;5655;48.744;9.162;2022-07-29T03:17:25;96356.19;;;20.67;100.00
11198;BME280;5655;48.744;9.162;2022-07-29T03:19:51;96341.13;;;20.79;100.00
11198;BME280;5655;48.744;9.162;2022-07-29T03:22:16;96353.97;;;20.62;100.00
11198;BME280;5655;48.744;9.162;2022-07-29T03:24:42;96352.78;;;20.79;100.00
11198;BME280;5655;48.744;9.162;2022-07-29T03:27:07;96334.28;;;20.87;100.00
11198;BME280;5655;48.744;9.162;2022-07-29T03:29:33;96314.38;;;20.90;100.00
11198;BME280;5655;48.744;9.162;2022-07-29T03:31:58;96310.38;;;20.95;100.00
11198;BME280;5655;48.744;9.162;2022-07-29T03:34:23;96295.03;;;21.01;100.00
11198;BME280;5655;48.744;9.162;2022-07-29T03:36:49;96287.44;;;21.08;100.00
11198;BME280;5655;48.744;9.162;2022-07-29T03:39:17;96284.03;;;21.04;100.00
11198;BME280;5655;48.744;9.162;2022-07-29T03:41:45;96301.00;;;20.96;100.00
11198;BME280;5655;48.744;9.162;2022-07-29T03:44:13;96303.84;;;20.92;100.00
11198;BME280;5655;48.744;9.162;2022-07-29T03:46:41;96325.13;;;20.81;100.00
11198;BME280;5655;48.744;9.162;2022-07-29T03:49:09;96316.97;;;20.81;100.00
11198;BME280;5655;48.744;9.162;2022-07-29T03:51:36;96339.28;;;20.60;100.00
11198;BME280;5655;48.744;9.162;2022-07-29T03:54:03;96350.59;;;20.58;100.00
11198;BME280;5655;48.744;9.162;2022-07-29T03:56:29;96366.34;;;20.34;100.00
11198;BME280;5655;48.744;9.162;2022-07-29T03:58:57;96366.16;;;20.42;100.00
11198;BME280;5655;48.744;9.162;2022-07-29T04:01:24;96375.00;;;20.46;100.00
11198;BME280;5655;48.744;9.162;2022-07-29T04:03:50;96386.91;;;20.35;100.00
11198;BME280;5655;48.744;9.162;2022-07-29T04:06:16;96383.66;;;20.24;100.00
11198;BME280;5655;48.744;9.162;2022-07-29T04:08:41;96382.00;;;20.30;100.00
11198;BME280;5655;48.744;9.162;2022-07-29T04:11:06;96383.53;;;20.31;100.00
11198;BME280;5655;48.744;9.162;2022-07-29T04:13:32;96389.94;;;20.21;100.00
11198;BME280;5655;48.744;9.162;2022-07-29T04:15:58;96384.53;;;20.37;100.00
11198;BME280;5655;48.744;9.162;2022-07-29T04:18:23;96391.63;;;20.15;100.00
11198;BME280;5655;48.744;9.162;2022-07-29T04:20:49;96399.97;;;20.08;100.00
11198;BME280;5655;48.744;9.162;2022-07-29T04:23:15;96393.25;;;20.13;100.00
11198;BME280;5655;48.744;9.162;2022-07-29T04:25:41;96389.59;;;20.19;100.00
11198;BME280;5655;48.744;9.162;2022-07-29T04:28:07;96397.75;;;20.19;100.00
11198;BME280;5655;48.744;9.162;2022-07-29T04:30:33;96385.19;;;20.25;100.00
11198;BME280;5655;48.744;9.162;2022-07-29T04:33:04;96381.22;;;20.30;100.00
11198;BME280;5655;48.744;9.162;2022-07-29T04:35:30;96375.38;;;20.31;100.00
11198;BME280;5655;48.744;9.162;2022-07-29T04:37:56;96367.84;;;20.19;100.00
11198;BME280;5655;48.744;9.162;2022-07-29T04:40:21;96358.09;;;20.38;100.00
11198;BME280;5655;48.744;9.162;2022-07-29T04:42:47;96345.47;;;20.31;100.00
11198;BME280;5655;48.744;9.162;2022-07-29T04:45:12;96341.53;;;20.32;100.00
11198;BME280;5655;48.744;9.162;2022-07-29T04:47:38;96324.66;;;20.54;100.00
11198;BME280;5655;48.744;9.162;2022-07-29T04:50:03;96322.00;;;20.37;100.00
11198;BME280;5655;48.744;9.162;2022-07-29T04:52:31;96304.53;;;20.51;100.00
11198;BME280;5655;48.744;9.162;2022-07-29T04:54:56;96306.66;;;20.60;100.00
11198;BME280;5655;48.744;9.162;2022-07-29T04:57:21;96284.91;;;20.60;100.00
11198;BME280;5655;48.744;9.162;2022-07-29T04:59:46;96283.50;;;20.68;100.00
11198;BME280;5655;48.744;9.162;2022-07-29T05:02:12;96286.06;;;20.59;100.00
11198;BME280;5655;48.744;9.162;2022-07-29T05:04:40;96275.63;;;20.86;100.00
11198;BME280;5655;48.744;9.162;2022-07-29T05:07:05;96254.72;;;20.83;100.00
11198;BME280;5655;48.744;9.162;2022-07-29T05:09:31;96259.41;;;20.82;100.00
11198;BME280;5655;48.744;9.162;2022-07-29T05:11:57;96252.44;;;20.94;100.00
11198;BME280;5655;48.744;9.162;2022-07-29T05:14:22;96240.91;;;20.90;100.00
11198;BME280;5655;48.744;9.162;2022-07-29T05:16:48;96232.22;;;20.95;100.00
11198;BME280;5655;48.744;9.162;2022-07-29T05:19:16;96238.53;;;21.05;100.00
11198;BME280;5655;48.744;9.162;2022-07-29T05:21:41;96230.25;;;20.96;100.00
11198;BME280;5655;48.744;9.162;2022-07-29T05:24:07;96230.47;;;21.01;100.00
11198;BME280;5655;48.744;9.162;2022-07-29T05:26:33;96217.34;;;21.12;100.00
11198;BME280;5655;48.744;9.162;2022-07-29T05:28:58;96214.09;;;21.17;100.00
11198;BME280;5655;48.744;9.162;2022-07-29T05:31:23;96203.19;;;21.43;100.00
11198;BME280;5655;48.744;9.162;2022-07-29T05:36:46;96175.63;;;21.28;100.00
11198;BME280;5655;48.744;9.162;2022-07-29T05:39:12;96160.13;;;21.50;100.00
11198;BME280;5655;48.744;9.162;2022-07-29T05:41:38;96146.50;;;21.63;100.00
11198;BME280;5655;48.744;9.162;2022-07-29T05:44:04;96144.56;;;21.51;100.00
11198;BME280;5655;48.744;9.162;2022-07-29T05:46:29;96121.16;;;21.75;100.00
11198;BME280;5655;48.744;9.162;2022-07-29T05:48:54;96123.84;;;21.88;100.00
11198;BME280;5655;48.744;9.162;2022-07-29T05:51:20;96105.88;;;21.90;100.00
11198;BME280;5655;48.744;9.162;2022-07-29T05:53:45;96111.06;;;21.63;100.00
11198;BME280;5655;48.744;9.162;2022-07-29T05:56:11;96102.44;;;21.77;100.00
11198;BME280;5655;48.744;9.162;2022-07-29T05:58:36;96081.03;;;22.10;100.00
11198;BME280;5655;48.744;9.162;2022-07-29T06:01:02;96079.78;;;22.02;100.00
11198;BME280;5655;48.744;9.162;2022-07-29T06:03:27;96074.56;;;22.16;100.00
11198;BME280;5655;48.744;9.162;2022-07-29T06:05:53;96060.44;;;22.40;100.00
11198;BME280;5655;48.744;9.162;2022-07-29T06:08:18;96071.63;;;22.33;100.00
11198;BME280;5655;48.744;9.162;2022-07-29T06:10:44;96056.53;;;22.41;100.00
11198;BME280;5655;48.744;9.162;2022-07-29T06:13:11;96047.81;;;22.55;100.00
11198;BME280;5655;48.744;9.162;2022-07-29T06:15:36;96069.84;;;22.39;100.00
11198;BME280;5655;48.744;9.162;2022-07-29T06:18:01;96057.28;;;22.41;100.00
11198;BME280;5655;48.744;9.162;2022-07-29T06:20:30;96045.88;;;22.65;100.00
11198;BME280;5655;48.744;9.162;2022-07-29T06:22:56;96030.94;;;22.78;100.00
11198;BME280;5655;48.744;9.162;2022-07-29T06:25:22;96021.53;;;22.79;100.00
11198;BME280;5655;48.744;9.162;2022-07-29T06:27:47;95998.81;;;22.82;100.00
11198;BME280;5655;48.744;9.162;2022-07-29T06:30:13;95987.59;;;22.89;100.00
11198;BME280;5655;48.744;9.162;2022-07-29T06:32:38;95983.06;;;23.04;100.00
11198;BME280;5655;48.744;9.162;2022-07-29T06:35:04;95985.81;;;23.14;100.00
11198;BME280;5655;48.744;9.162;2022-07-29T06:37:29;95987.63;;;23.35;100.00
11198;BME280;5655;48.744;9.162;2022-07-29T06:39:54;95984.91;;;23.35;100.00
11198;BME280;5655;48.744;9.162;2022-07-29T06:42:44;95994.19;;;23.65;100.00
11198;BME280;5655;48.744;9.162;2022-07-29T06:48:09;95995.25;;;23.67;100.00
11198;BME280;5655;48.744;9.162;2022-07-29T06:50:35;96005.88;;;23.74;100.00
11198;BME280;5655;48.744;9.162;2022-07-29T06:53:00;95999.94;;;23.85;100.00
11198;BME280;5655;48.744;9.162;2022-07-29T06:55:25;95994.75;;;23.96;100.00
11198;BME280;5655;48.744;9.162;2022-07-29T06:57:51;96007.06;;;23.91;100.00
11198;BME280;5655;48.744;9.162;2022-07-29T07:00:16;96015.53;;;24.12;100.00
11198;BME280;5655;48.744;9.162;2022-07-29T07:02:41;96015.81;;;24.23;100.00
11198;BME280;5655;48.744;9.162;2022-07-29T07:05:07;96039.09;;;24.18;100.00
11198;BME280;5655;48.744;9.162;2022-07-29T07:07:32;96027.97;;;24.22;100.00
11198;BME280;5655;48.744;9.162;2022-07-29T07:09:58;96031.63;;;24.10;100.00
11198;BME280;5655;48.744;9.162;2022-07-29T07:12:23;96043.16;;;24.14;100.00
11198;BME280;5655;48.744;9.162;2022-07-29T07:14:48;96046.47;;;24.36;100.00
11198;BME280;5655;48.744;9.162;2022-07-29T07:17:13;96048.09;;;24.52;100.00
11198;BME280;5655;48.744;9.162;2022-07-29T07:19:39;96058.00;;;24.49;100.00
11198;BME280;5655;48.744;9.162;2022-07-29T07:22:04;96068.69;;;24.29;100.00
11198;BME280;5655;48.744;9.162;2022-07-29T07:24:29;96064.00;;;24.71;100.00
11198;BME280;5655;48.744;9.162;2022-07-29T07:26:55;96061.53;;;24.73;100.00
11198;BME280;5655;48.744;9.162;2022-07-29T07:29:20;96076.69;;;24.51;100.00
11198;BME280;5655;48.744;9.162;2022-07-29T07:31:45;96108.38;;;24.84;100.00
11198;BME280;5655;48.744;9.162;2022-07-29T07:34:11;96109.91;;;24.76;100.00
11198;BME280;5655;48.744;9.162;2022-07-29T07:36:36;96114.16;;;24.87;100.00
11198;BME280;5655;48.744;9.162;2022-07-29T07:39:02;96114.63;;;24.76;100.00
11198;BME280;5655;48.744;9.162;2022-07-29T07:41:28;96125.00;;;24.72;100.00
11198;BME280;5655;48.744;9.162;2022-07-29T07:43:54;96115.38;;;24.85;100.00
11198;BME280;5655;48.744;9.162;2022-07-29T07:46:19;96129.72;;;24.62;100.00
11198;BME280;5655;48.744;9.162;2022-07-29T07:48:44;96124.81;;;24.75;100.00
11198;BME280;5655;48.744;9.162;2022-07-29T07:51:10;96124.22;;;25.13;100.00
11198;BME280;5655;48.744;9.162;2022-07-29T07:53:35;96132.53;;;25.28;100.00
11198;BME280;5655;48.744;9.162;2022-07-29T07:56:00;96128.41;;;25.33;100.00
11198;BME280;5655;48.744;9.162;2022-07-29T07:58:26;96128.09;;;25.30;100.00
11198;BME280;5655;48.744;9.162;2022-07-29T08:00:52;96120.78;;;25.60;100.00
11198;BME280;5655;48.744;9.162;2022-07-29T08:03:17;96133.38;;;25.91;100.00
11198;BME280;5655;48.744;9.162;2022-07-29T08:05:43;96146.44;;;25.48;100.00
11198;BME280;5655;48.744;9.162;2022-07-29T08:08:08;96138.13;;;25.34;100.00
11198;BME280;5655;48.744;9.162;2022-07-29T08:10:34;96137.19;;;25.69;100.00
11198;BME280;5655;48.744;9.162;2022-07-29T08:13:19;96139.75;;;26.11;100.00
11198;BME280;5655;48.744;9.162;2022-07-29T08:15:45;96134.75;;;26.10;100.00
11198;BME280;5655;48.744;9.162;2022-07-29T08:18:11;96127.97;;;26.20;100.00
11198;BME280;5655;48.744;9.162;2022-07-29T08:20:37;96118.03;;;26.37;100.00
11198;BME280;5655;48.744;9.162;2022-07-29T08:23:05;96123.34;;;26.41;100.00
11198;BME280;5655;48.744;9.162;2022-07-29T08:25:41;96117.88;;;26.70;100.00
11198;BME280;5655;48.744;9.162;2022-07-29T08:28:07;96113.03;;;26.65;100.00
11198;BME280;5655;48.744;9.162;2022-07-29T08:30:33;96120.53;;;26.64;100.00
11198;BME280;5655;48.744;9.162;2022-07-29T08:32:59;96124.97;;;26.77;100.00
11198;BME280;5655;48.744;9.162;2022-07-29T08:35:25;96113.78;;;26.80;100.00
11198;BME280;5655;48.744;9.162;2022-07-29T08:37:51;96098.63;;;26.99;100.00
11198;BME280;5655;48.744;9.162;2022-07-29T08:40:17;96094.88;;;27.17;100.00
11198;BME280;5655;48.744;9.162;2022-07-29T08:42:42;96082.78;;;26.80;100.00
11198;BME280;5655;48.744;9.162;2022-07-29T08:45:09;96079.72;;;26.87;100.00
11198;BME280;5655;48.744;9.162;2022-07-29T08:47:35;96075.91;;;27.19;100.00
11198;BME280;5655;48.744;9.162;2022-07-29T08:50:04;96077.34;;;27.15;100.00
11198;BME280;5655;48.744;9.162;2022-07-29T08:52:32;96081.06;;;27.32;100.00
11198;BME280;5655;48.744;9.162;2022-07-29T08:55:01;96072.34;;;27.33;100.00
11198;BME280;5655;48.744;9.162;2022-07-29T08:57:27;96066.88;;;27.33;100.00
11198;BME280;5655;48.744;9.162;2022-07-29T08:59:53;96077.06;;;27.68;100.00
11198;BME280;5655;48.744;9.162;2022-07-29T09:02:21;96077.34;;;27.70;100.00
11198;BME280;5655;48.744;9.162;2022-07-29T09:04:48;96071.44;;;28.03;100.00
11198;BME280;5655;48.744;9.162;2022-07-29T09:07:15;96074.78;;;27.46;100.00
11198;BME280;5655;48.744;9.162;2022-07-29T09:09:42;96077.63;;;27.72;100.00
11198;BME280;5655;48.744;9.162;2022-07-29T09:12:08;96071.84;;;27.70;100.00
11198;BME280;5655;48.744;9.162;2022-07-29T09:14:34;96082.72;;;27.59;100.00
11198;BME280;5655;48.744;9.162;2022-07-29T09:16:59;96079.00;;;27.82;100.00
11198;BME280;5655;48.744;9.162;2022-07-29T09:19:36;96079.38;;;27.75;100.00
11198;BME280;5655;48.744;9.162;2022-07-29T09:22:06;96076.31;;;28.13;100.00
11198;BME280;5655;48.744;9.162;2022-07-29T09:27:00;96072.34;;;28.14;100.00
11198;BME280;5655;48.744;9.162;2022-07-29T09:29:26;96072.66;;;28.22;100.00
11198;BME280;5655;48.744;9.162;2022-07-29T09:31:54;96073.31;;;28.11;100.00
11198;BME280;5655;48.744;9.162;2022-07-29T09:34:24;96069.75;;;28.31;100.00
11198;BME280;5655;48.744;9.162;2022-07-29T09:36:51;96071.69;;;28.51;100.00
11198;BME280;5655;48.744;9.162;2022-07-29T09:39:47;96075.44;;;28.79;100.00
11198;BME280;5655;48.744;9.162;2022-07-29T09:42:12;96064.19;;;28.57;100.00
11198;BME280;5655;48.744;9.162;2022-07-29T09:44:47;96060.19;;;28.83;100.00
11198;BME280;5655;48.744;9.162;2022-07-29T09:47:13;96061.34;;;29.08;100.00
11198;BME280;5655;48.744;9.162;2022-07-29T09:49:56;96067.81;;;29.37;100.00
11198;BME280;5655;48.744;9.162;2022-07-29T09:52:26;96068.19;;;29.18;100.00
11198;BME280;5655;48.744;9.162;2022-07-29T09:54:52;96061.66;;;29.16;100.00
11198;BME280;5655;48.744;9.162;2022-07-29T09:57:27;96061.34;;;29.08;100.00
11198;BME280;5655;48.744;9.162;2022-07-29T10:00:07;96058.84;;;29.10;100.00
11198;BME280;5655;48.744;9.162;2022-07-29T10:02:35;96056.25;;;28.96;100.00
11198;BME280;5655;48.744;9.162;2022-07-29T10:05:04;96047.16;;;29.26;100.00
11198;BME280;5655;48.744;9.162;2022-07-29T10:07:50;96056.56;;;29.46;100.00
11198;BME280;5655;48.744;9.162;2022-07-29T10:10:33;96066.88;;;29.56;100.00
11198;BME280;5655;48.744;9.162;2022-07-29T10:13:04;96058.38;;;29.60;100.00
11198;BME280;5655;48.744;9.162;2022-07-29T10:15:32;96053.22;;;29.30;100.00
11198;BME280;5655;48.744;9.162;2022-07-29T10:17:58;96058.75;;;29.30;100.00
11198;BME280;5655;48.744;9.162;2022-07-29T10:20:25;96055.72;;;29.28;100.00
11198;BME280;5655;48.744;9.162;2022-07-29T10:22:51;96054.00;;;29.37;100.00
11198;BME280;5655;48.744;9.162;2022-07-29T10:25:18;96045.91;;;29.27;100.00
11198;BME280;5655;48.744;9.162;2022-07-29T10:27:47;96043.88;;;29.22;100.00
11198;BME280;5655;48.744;9.162;2022-07-29T10:30:15;96044.59;;;29.17;100.00
11198;BME280;5655;48.744;9.162;2022-07-29T10:33:18;96052.72;;;28.90;100.00
11198;BME280;5655;48.744;9.162;2022-07-29T10:44:14;96044.94;;;28.88;100.00
11198;BME280;5655;48.744;9.162;2022-07-29T10:46:40;96043.88;;;28.49;100.00
11198;BME280;5655;48.744;9.162;2022-07-29T10:49:13;96043.28;;;28.39;100.00
11198;BME280;5655;48.744;9.162;2022-07-29T10:52:03;96040.50;;;28.08;100.00
11198;BME280;5655;48.744;9.162;2022-07-29T10:54:48;96056.38;;;27.72;100.00
11198;BME280;5655;48.744;9.162;2022-07-29T11:05:09;96099.06;;;25.24;100.00
11198;BME280;5655;48.744;9.162;2022-07-29T11:07:36;96132.03;;;25.06;100.00
11198;BME280;5655;48.744;9.162;2022-07-29T11:15:06;96185.69;;;24.52;100.00
11198;BME280;5655;48.744;9.162;2022-07-29T11:20:43;96180.50;;;23.90;100.00
11198;BME280;5655;48.744;9.162;2022-07-29T11:31:16;96211.09;;;23.18;100.00
11198;BME280;5655;48.744;9.162;2022-07-29T11:33:44;96189.72;;;23.26;100.00
11198;BME280;5655;48.744;9.162;2022-07-29T11:36:12;96184.59;;;23.28;100.00
11198;BME280;5655;48.744;9.162;2022-07-29T11:38:38;96181.56;;;23.35;100.00
11198;BME280;5655;48.744;9.162;2022-07-29T11:43:49;96172.09;;;23.48;100.00
11198;BME280;5655;48.744;9.162;2022-07-29T11:46:41;96187.28;;;23.49;100.00
11198;BME280;5655;48.744;9.162;2022-07-29T11:49:03;96201.13;;;22.93;100.00
11198;BME280;5655;48.744;9.162;2022-07-29T11:51:29;96204.31;;;22.70;100.00
11198;BME280;5655;48.744;9.162;2022-07-29T11:53:55;96204.09;;;22.77;100.00
11198;BME280;5655;48.744;9.162;2022-07-29T11:56:23;96196.19;;;22.57;100.00
11198;BME280;5655;48.744;9.162;2022-07-29T11:59:02;96179.00;;;22.04;100.00
11198;BME280;5655;48.744;9.162;2022-07-29T12:01:28;96181.06;;;21.88;100.00
11198;BME280;5655;48.744;9.162;2022-07-29T12:04:03;96187.22;;;22.13;100.00
11198;BME280;5655;48.744;9.162;2022-07-29T12:06:28;96188.69;;;22.05;100.00
11198;BME280;5655;48.744;9.162;2022-07-29T12:08:54;96182.28;;;21.87;100.00
11198;BME280;5655;48.744;9.162;2022-07-29T12:11:20;96183.31;;;22.36;100.00
11198;BME280;5655;48.744;9.162;2022-07-29T12:13:46;96193.72;;;22.29;100.00
11198;BME280;5655;48.744;9.162;2022-07-29T12:16:11;96187.56;;;22.37;100.00
11198;BME280;5655;48.744;9.162;2022-07-29T12:18:36;96187.06;;;22.30;100.00
11198;BME280;5655;48.744;9.162;2022-07-29T12:21:02;96194.16;;;22.49;100.00
11198;BME280;5655;48.744;9.162;2022-07-29T12:23:31;96182.25;;;22.77;100.00
11198;BME280;5655;48.744;9.162;2022-07-29T12:25:58;96194.41;;;22.85;100.00
11198;BME280;5655;48.744;9.162;2022-07-29T12:28:23;96183.75;;;22.78;100.00
11198;BME280;5655;48.744;9.162;2022-07-29T12:30:50;96188.34;;;22.81;100.00
11198;BME280;5655;48.744;9.162;2022-07-29T12:33:25;96183.22;;;22.92;100.00
11198;BME280;5655;48.744;9.162;2022-07-29T12:36:00;96172.44;;;22.89;100.00
11198;BME280;5655;48.744;9.162;2022-07-29T12:38:26;96175.25;;;22.76;100.00
11198;BME280;5655;48.744;9.162;2022-07-29T12:40:53;96173.50;;;22.91;100.00
11198;BME280;5655;48.744;9.162;2022-07-29T12:43:21;96164.16;;;23.01;100.00
11198;BME280;5655;48.744;9.162;2022-07-29T12:45:48;96161.81;;;22.82;100.00
11198;BME280;5655;48.744;9.162;2022-07-29T12:48:15;96165.88;;;22.77;100.00
11198;BME280;5655;48.744;9.162;2022-07-29T12:50:58;96170.16;;;22.87;100.00
11198;BME280;5655;48.744;9.162;2022-07-29T12:53:24;96174.88;;;22.65;100.00
11198;BME280;5655;48.744;9.162;2022-07-29T12:55:52;96179.81;;;22.79;100.00
11198;BME280;5655;48.744;9.162;2022-07-29T12:58:38;96178.13;;;23.03;100.00
11198;BME280;5655;48.744;9.162;2022-07-29T13:01:05;96174.47;;;22.97;100.00
11198;BME280;5655;48.744;9.162;2022-07-29T13:09:04;96190.94;;;22.85;100.00
11198;BME280;5655;48.744;9.162;2022-07-29T13:11:31;96206.25;;;22.91;100.00
11198;BME280;5655;48.744;9.162;2022-07-29T13:13:57;96221.69;;;22.63;100.00
11198;BME280;5655;48.744;9.162;2022-07-29T13:16:23;96227.16;;;22.42;100.00
11198;BME280;5655;48.744;9.162;2022-07-29T13:18:48;96225.00;;;22.37;100.00
11198;BME280;5655;48.744;9.162;2022-07-29T13:21:27;96217.13;;;22.39;100.00
11198;BME280;5655;48.744;9.162;2022-07-29T13:23:52;96222.88;;;22.19;100.00
11198;BME280;5655;48.744;9.162;2022-07-29T13:26:18;96223.97;;;22.22;100.00
11198;BME280;5655;48.744;9.162;2022-07-29T13:28:44;96239.16;;;22.10;100.00
11198;BME280;5655;48.744;9.162;2022-07-29T13:31:10;96238.03;;;22.20;100.00
11198;BME280;5655;48.744;9.162;2022-07-29T13:33:36;96235.66;;;22.09;100.00
11198;BME280;5655;48.744;9.162;2022-07-29T13:36:01;96232.88;;;22.00;100.00
11198;BME280;5655;48.744;9.162;2022-07-29T13:38:26;96227.97;;;21.95;100.00
11198;BME280;5655;48.744;9.162;2022-07-29T13:40:52;96212.09;;;22.15;100.00
11198;BME280;5655;48.744;9.162;2022-07-29T13:43:17;96225.16;;;22.21;100.00
11198;BME280;5655;48.744;9.162;2022-07-29T13:45:43;96228.13;;;22.13;100.00
11198;BME280;5655;48.744;9.162;2022-07-29T13:48:08;96213.44;;;22.33;100.00
11198;BME280;5655;48.744;9.162;2022-07-29T13:50:33;96218.63;;;22.40;100.00
11198;BME280;5655;48.744;9.162;2022-07-29T13:52:59;96226.25;;;22.45;100.00
11198;BME280;5655;48.744;9.162;2022-07-29T13:55:24;96240.91;;;22.73;100.00
11198;BME280;5655;48.744;9.162;2022-07-29T13:57:50;96226.97;;;22.80;100.00
11198;BME280;5655;48.744;9.162;2022-07-29T14:00:15;96214.59;;;22.88;100.00
11198;BME280;5655;48.744;9.162;2022-07-29T14:02:42;96220.88;;;22.97;100.00
11198;BME280;5655;48.744;9.162;2022-07-29T14:05:08;96216.47;;;23.00;100.00
11198;BME280;5655;48.744;9.162;2022-07-29T14:07:35;96231.31;;;23.21;100.00